sensor_id;sensor_type;location;lat;lon;timestamp;P1;durP1;ratioP1;P2;durP2;ratioP2
61471;SDS011;47337;54.068;12.114;2023-05-14T00:01:49;12.27;;;7.03;;
61471;SDS011;47337;54.068;12.114;2023-05-14T00:04:16;12.15;;;6.93;;
61471;SDS011;47337;54.068;12.114;2023-05-14T00:06:43;16.35;;;7.25;;
61471;SDS011;47337;54.068;12.114;2023-05-14T00:09:10;8.77;;;7.28;;
61471;SDS011;47337;54.068;12.114;2023-05-14T00:11:35;12.00;;;7.63;;
61471;SDS011;47337;54.068;12.114;2023-05-14T00:14:01;10.80;;;7.75;;
61471;SDS011;47337;54.068;12.114;2023-05-14T00:16:26;11.57;;;7.45;;
61471;SDS011;47337;54.068;12.114;2023-05-14T00:18:51;10.13;;;7.47;;
61471;SDS011;47337;54.068;12.114;2023-05-14T00:21:17;10.82;;;7.53;;
61471;SDS011;47337;54.068;12.114;2023-05-14T00:23:45;10.38;;;7.13;;
61471;SDS011;47337;54.068;12.114;2023-05-14T00:26:10;8.65;;;6.70;;
61471;SDS011;47337;54.068;12.114;2023-05-14T00:28:38;11.70;;;8.13;;
61471;SDS011;47337;54.068;12.114;2023-05-14T00:31:05;10.13;;;7.65;;
61471;SDS011;47337;54.068;12.114;2023-05-14T00:33:33;9.20;;;8.15;;
61471;SDS011;47337;54.068;12.114;2023-05-14T00:35:59;11.77;;;7.57;;
61471;SDS011;47337;54.068;12.114;2023-05-14T00:38:24;9.73;;;6.90;;
61471;SDS011;47337;54.068;12.114;2023-05-14T00:40:54;11.20;;;8.05;;
61471;SDS011;47337;54.068;12.114;2023-05-14T00:43:22;11.90;;;7.75;;
61471;SDS011;47337;54.068;12.114;2023-05-14T00:45:51;10.77;;;7.95;;
61471;SDS011;47337;54.068;12.114;2023-05-14T00:48:18;12.20;;;7.57;;
61471;SDS011;47337;54.068;12.114;2023-05-14T00:50:44;13.50;;;8.32;;
61471;SDS011;47337;54.068;12.114;2023-05-14T00:53:12;11.45;;;7.60;;
61471;SDS011;47337;54.068;12.114;2023-05-14T00:55:39;12.80;;;7.88;;
61471;SDS011;47337;54.068;12.114;2023-05-14T00:58:09;10.93;;;7.55;;
61471;SDS011;47337;54.068;12.114;2023-05-14T01:00:37;10.68;;;7.97;;
61471;SDS011;47337;54.068;12.114;2023-05-14T01:03:04;10.70;;;7.78;;
61471;SDS011;47337;54.068;12.114;2023-05-14T01:14:23;13.85;;;8.50;;
61471;SDS011;47337;54.068;12.114;2023-05-14T01:17:21;11.63;;;8.23;;
61471;SDS011;47337;54.068;12.114;2023-05-14T01:19:49;15.27;;;8.30;;
61471;SDS011;47337;54.068;12.114;2023-05-14T01:22:16;13.80;;;8.40;;
61471;SDS011;47337;54.068;12.114;2023-05-14T01:24:41;11.88;;;9.30;;
61471;SDS011;47337;54.068;12.114;2023-05-14T01:29:52;15.07;;;8.93;;
61471;SDS011;47337;54.068;12.114;2023-05-14T01:32:24;14.70;;;8.57;;
61471;SDS011;47337;54.068;12.114;2023-05-14T01:34:52;11.70;;;8.93;;
61471;SDS011;47337;54.068;12.114;2023-05-14T01:37:22;12.65;;;9.23;;
61471;SDS011;47337;54.068;12.114;2023-05-14T01:39:53;11.75;;;8.18;;
61471;SDS011;47337;54.068;12.114;2023-05-14T01:42:20;17.80;;;9.77;;
61471;SDS011;47337;54.068;12.114;2023-05-14T01:44:46;14.27;;;9.38;;
61471;SDS011;47337;54.068;12.114;2023-05-14T01:47:11;15.18;;;10.52;;
61471;SDS011;47337;54.068;12.114;2023-05-14T01:49:36;12.98;;;8.82;;
61471;SDS011;47337;54.068;12.114;2023-05-14T01:52:02;16.60;;;10.02;;
61471;SDS011;47337;54.068;12.114;2023-05-14T01:54:27;13.52;;;9.82;;
61471;SDS011;47337;54.068;12.114;2023-05-14T01:56:53;14.77;;;9.35;;
61471;SDS011;47337;54.068;12.114;2023-05-14T01:59:18;14.35;;;8.95;;
61471;SDS011;47337;54.068;12.114;2023-05-14T02:01:48;12.95;;;8.73;;
61471;SDS011;47337;54.068;12.114;2023-05-14T02:04:13;13.90;;;9.65;;
61471;SDS011;47337;54.068;12.114;2023-05-14T02:06:42;15.32;;;10.25;;
61471;SDS011;47337;54.068;12.114;2023-05-14T02:09:07;15.48;;;9.27;;
61471;SDS011;47337;54.068;12.114;2023-05-14T02:11:32;13.52;;;9.73;;
61471;SDS011;47337;54.068;12.114;2023-05-14T02:13:58;15.40;;;9.55;;
61471;SDS011;47337;54.068;12.114;2023-05-14T02:16:23;11.80;;;9.15;;
61471;SDS011;47337;54.068;12.114;2023-05-14T02:18:51;19.33;;;10.25;;
61471;SDS011;47337;54.068;12.114;2023-05-14T02:21:19;14.27;;;9.75;;
61471;SDS011;47337;54.068;12.114;2023-05-14T02:23:44;11.95;;;9.13;;
61471;SDS011;47337;54.068;12.114;2023-05-14T02:26:15;16.67;;;10.23;;
61471;SDS011;47337;54.068;12.114;2023-05-14T02:28:41;14.93;;;10.02;;
61471;SDS011;47337;54.068;12.114;2023-05-14T02:31:06;16.23;;;9.68;;
61471;SDS011;47337;54.068;12.114;2023-05-14T02:33:33;19.77;;;10.35;;
61471;SDS011;47337;54.068;12.114;2023-05-14T02:35:58;13.38;;;10.02;;
61471;SDS011;47337;54.068;12.114;2023-05-14T02:38:24;13.95;;;10.43;;
61471;SDS011;47337;54.068;12.114;2023-05-14T02:40:50;13.73;;;10.60;;
61471;SDS011;47337;54.068;12.114;2023-05-14T02:43:18;14.60;;;9.90;;
61471;SDS011;47337;54.068;12.114;2023-05-14T02:45:43;16.02;;;10.75;;
61471;SDS011;47337;54.068;12.114;2023-05-14T02:48:08;17.27;;;10.68;;
61471;SDS011;47337;54.068;12.114;2023-05-14T02:50:34;17.15;;;10.43;;
61471;SDS011;47337;54.068;12.114;2023-05-14T02:52:59;16.35;;;10.30;;
61471;SDS011;47337;54.068;12.114;2023-05-14T02:55:25;14.75;;;10.40;;
61471;SDS011;47337;54.068;12.114;2023-05-14T02:57:53;17.33;;;11.48;;
61471;SDS011;47337;54.068;12.114;2023-05-14T03:00:23;18.15;;;11.80;;
61471;SDS011;47337;54.068;12.114;2023-05-14T03:02:48;17.80;;;11.23;;
61471;SDS011;47337;54.068;12.114;2023-05-14T03:05:16;18.35;;;11.82;;
61471;SDS011;47337;54.068;12.114;2023-05-14T03:07:42;13.68;;;10.43;;
61471;SDS011;47337;54.068;12.114;2023-05-14T03:10:07;16.50;;;10.68;;
61471;SDS011;47337;54.068;12.114;2023-05-14T03:12:33;16.40;;;10.65;;
61471;SDS011;47337;54.068;12.114;2023-05-14T03:14:58;17.33;;;11.52;;
61471;SDS011;47337;54.068;12.114;2023-05-14T03:17:24;17.17;;;11.10;;
61471;SDS011;47337;54.068;12.114;2023-05-14T03:19:49;16.90;;;10.98;;
61471;SDS011;47337;54.068;12.114;2023-05-14T03:22:14;21.60;;;11.27;;
61471;SDS011;47337;54.068;12.114;2023-05-14T03:24:40;19.85;;;10.70;;
61471;SDS011;47337;54.068;12.114;2023-05-14T03:27:08;19.98;;;11.38;;
61471;SDS011;47337;54.068;12.114;2023-05-14T03:29:36;15.05;;;11.10;;
61471;SDS011;47337;54.068;12.114;2023-05-14T03:32:01;18.15;;;12.02;;
61471;SDS011;47337;54.068;12.114;2023-05-14T03:34:26;17.30;;;10.98;;
61471;SDS011;47337;54.068;12.114;2023-05-14T03:36:54;19.10;;;11.60;;
61471;SDS011;47337;54.068;12.114;2023-05-14T03:39:19;16.23;;;10.63;;
61471;SDS011;47337;54.068;12.114;2023-05-14T03:41:45;15.80;;;10.90;;
61471;SDS011;47337;54.068;12.114;2023-05-14T03:44:13;15.75;;;10.25;;
61471;SDS011;47337;54.068;12.114;2023-05-14T03:46:39;15.38;;;11.13;;
61471;SDS011;47337;54.068;12.114;2023-05-14T03:49:05;15.13;;;10.20;;
61471;SDS011;47337;54.068;12.114;2023-05-14T03:51:35;12.65;;;9.98;;
61471;SDS011;47337;54.068;12.114;2023-05-14T03:54:01;13.75;;;10.05;;
61471;SDS011;47337;54.068;12.114;2023-05-14T03:56:27;12.48;;;9.02;;
61471;SDS011;47337;54.068;12.114;2023-05-14T03:58:52;10.93;;;8.70;;
61471;SDS011;47337;54.068;12.114;2023-05-14T04:01:18;10.35;;;7.97;;
61471;SDS011;47337;54.068;12.114;2023-05-14T04:03:45;9.98;;;7.68;;
61471;SDS011;47337;54.068;12.114;2023-05-14T04:06:13;9.30;;;7.88;;
61471;SDS011;47337;54.068;12.114;2023-05-14T04:08:38;10.18;;;7.55;;
61471;SDS011;47337;54.068;12.114;2023-05-14T04:11:06;8.13;;;7.03;;
61471;SDS011;47337;54.068;12.114;2023-05-14T04:13:32;13.88;;;7.75;;
61471;SDS011;47337;54.068;12.114;2023-05-14T04:15:57;11.50;;;7.50;;
61471;SDS011;47337;54.068;12.114;2023-05-14T04:18:23;9.05;;;6.95;;
61471;SDS011;47337;54.068;12.114;2023-05-14T04:20:51;9.68;;;6.80;;
61471;SDS011;47337;54.068;12.114;2023-05-14T04:23:19;10.18;;;6.78;;
61471;SDS011;47337;54.068;12.114;2023-05-14T04:25:45;10.98;;;6.60;;
61471;SDS011;47337;54.068;12.114;2023-05-14T04:28:10;10.15;;;6.13;;
61471;SDS011;47337;54.068;12.114;2023-05-14T04:30:38;9.75;;;6.63;;
61471;SDS011;47337;54.068;12.114;2023-05-14T04:33:04;9.93;;;6.13;;
61471;SDS011;47337;54.068;12.114;2023-05-14T04:35:30;7.20;;;6.18;;
61471;SDS011;47337;54.068;12.114;2023-05-14T04:37:55;9.48;;;5.95;;
61471;SDS011;47337;54.068;12.114;2023-05-14T04:40:21;8.40;;;5.75;;
61471;SDS011;47337;54.068;12.114;2023-05-14T04:42:46;9.02;;;5.82;;
61471;SDS011;47337;54.068;12.114;2023-05-14T04:45:12;8.13;;;6.43;;
61471;SDS011;47337;54.068;12.114;2023-05-14T04:47:37;7.32;;;6.22;;
61471;SDS011;47337;54.068;12.114;2023-05-14T04:50:03;6.00;;;5.40;;
61471;SDS011;47337;54.068;12.114;2023-05-14T04:52:28;6.55;;;5.82;;
61471;SDS011;47337;54.068;12.114;2023-05-14T04:54:54;9.05;;;5.80;;
61471;SDS011;47337;54.068;12.114;2023-05-14T04:57:20;6.53;;;5.40;;
61471;SDS011;47337;54.068;12.114;2023-05-14T04:59:46;7.00;;;4.95;;
61471;SDS011;47337;54.068;12.114;2023-05-14T05:02:11;6.85;;;5.72;;
61471;SDS011;47337;54.068;12.114;2023-05-14T05:04:37;18.88;;;6.95;;
61471;SDS011;47337;54.068;12.114;2023-05-14T05:07:05;9.15;;;5.85;;
61471;SDS011;47337;54.068;12.114;2023-05-14T05:09:33;10.10;;;5.85;;
61471;SDS011;47337;54.068;12.114;2023-05-14T05:11:59;6.75;;;5.20;;
61471;SDS011;47337;54.068;12.114;2023-05-14T05:14:25;6.32;;;5.50;;
61471;SDS011;47337;54.068;12.114;2023-05-14T05:16:51;8.63;;;5.63;;
61471;SDS011;47337;54.068;12.114;2023-05-14T05:19:16;5.57;;;5.00;;
61471;SDS011;47337;54.068;12.114;2023-05-14T05:21:42;7.95;;;5.70;;
61471;SDS011;47337;54.068;12.114;2023-05-14T05:24:07;7.10;;;4.60;;
61471;SDS011;47337;54.068;12.114;2023-05-14T05:26:32;8.07;;;5.20;;
61471;SDS011;47337;54.068;12.114;2023-05-14T05:29:00;7.30;;;5.28;;
61471;SDS011;47337;54.068;12.114;2023-05-14T05:31:27;8.32;;;5.20;;
61471;SDS011;47337;54.068;12.114;2023-05-14T05:33:53;6.65;;;4.80;;
61471;SDS011;47337;54.068;12.114;2023-05-14T05:36:18;5.53;;;4.95;;
61471;SDS011;47337;54.068;12.114;2023-05-14T05:38:44;9.10;;;5.00;;
61471;SDS011;47337;54.068;12.114;2023-05-14T05:41:09;8.95;;;5.55;;
61471;SDS011;47337;54.068;12.114;2023-05-14T05:43:35;8.55;;;5.28;;
61471;SDS011;47337;54.068;12.114;2023-05-14T05:46:05;5.82;;;5.10;;
61471;SDS011;47337;54.068;12.114;2023-05-14T05:48:31;5.35;;;4.78;;
61471;SDS011;47337;54.068;12.114;2023-05-14T05:50:56;7.53;;;5.30;;
61471;SDS011;47337;54.068;12.114;2023-05-14T05:53:22;8.77;;;5.40;;
61471;SDS011;47337;54.068;12.114;2023-05-14T05:55:47;7.38;;;5.03;;
61471;SDS011;47337;54.068;12.114;2023-05-14T05:58:16;9.38;;;5.55;;
61471;SDS011;47337;54.068;12.114;2023-05-14T06:00:44;6.38;;;4.50;;
61471;SDS011;47337;54.068;12.114;2023-05-14T06:03:11;8.75;;;4.72;;
61471;SDS011;47337;54.068;12.114;2023-05-14T06:05:39;6.85;;;5.10;;
61471;SDS011;47337;54.068;12.114;2023-05-14T06:08:04;6.28;;;5.20;;
61471;SDS011;47337;54.068;12.114;2023-05-14T06:10:30;5.88;;;4.88;;
61471;SDS011;47337;54.068;12.114;2023-05-14T06:12:58;6.22;;;4.82;;
61471;SDS011;47337;54.068;12.114;2023-05-14T06:15:26;5.70;;;5.18;;
61471;SDS011;47337;54.068;12.114;2023-05-14T06:17:51;7.75;;;5.03;;
61471;SDS011;47337;54.068;12.114;2023-05-14T06:20:17;7.05;;;5.38;;
61471;SDS011;47337;54.068;12.114;2023-05-14T06:22:45;5.47;;;4.97;;
61471;SDS011;47337;54.068;12.114;2023-05-14T06:25:10;6.13;;;5.50;;
61471;SDS011;47337;54.068;12.114;2023-05-14T06:27:36;10.57;;;5.40;;
61471;SDS011;47337;54.068;12.114;2023-05-14T06:30:01;7.22;;;5.55;;
61471;SDS011;47337;54.068;12.114;2023-05-14T06:32:30;8.30;;;4.90;;
61471;SDS011;47337;54.068;12.114;2023-05-14T06:34:56;6.68;;;4.90;;
61471;SDS011;47337;54.068;12.114;2023-05-14T06:37:21;5.65;;;4.97;;
61471;SDS011;47337;54.068;12.114;2023-05-14T06:39:47;10.07;;;4.57;;
61471;SDS011;47337;54.068;12.114;2023-05-14T06:42:14;8.43;;;5.35;;
61471;SDS011;47337;54.068;12.114;2023-05-14T06:44:43;7.45;;;4.90;;
61471;SDS011;47337;54.068;12.114;2023-05-14T06:47:09;5.07;;;4.32;;
61471;SDS011;47337;54.068;12.114;2023-05-14T06:49:37;5.85;;;4.45;;
61471;SDS011;47337;54.068;12.114;2023-05-14T06:52:02;6.03;;;4.35;;
61471;SDS011;47337;54.068;12.114;2023-05-14T06:54:31;4.63;;;4.22;;
61471;SDS011;47337;54.068;12.114;2023-05-14T06:56:56;7.55;;;4.57;;
61471;SDS011;47337;54.068;12.114;2023-05-14T06:59:24;5.90;;;4.45;;
61471;SDS011;47337;54.068;12.114;2023-05-14T07:01:50;4.75;;;4.25;;
61471;SDS011;47337;54.068;12.114;2023-05-14T07:04:15;7.07;;;4.13;;
61471;SDS011;47337;54.068;12.114;2023-05-14T07:06:41;5.82;;;4.10;;
61471;SDS011;47337;54.068;12.114;2023-05-14T07:09:06;7.72;;;4.20;;
61471;SDS011;47337;54.068;12.114;2023-05-14T07:11:31;5.97;;;4.15;;
61471;SDS011;47337;54.068;12.114;2023-05-14T07:13:57;5.65;;;4.03;;
61471;SDS011;47337;54.068;12.114;2023-05-14T07:16:25;5.78;;;3.78;;
61471;SDS011;47337;54.068;12.114;2023-05-14T07:18:51;8.63;;;4.07;;
61471;SDS011;47337;54.068;12.114;2023-05-14T07:21:16;4.88;;;3.75;;
61471;SDS011;47337;54.068;12.114;2023-05-14T07:23:44;5.13;;;4.25;;
61471;SDS011;47337;54.068;12.114;2023-05-14T07:26:09;8.38;;;4.22;;
61471;SDS011;47337;54.068;12.114;2023-05-14T07:28:35;4.57;;;4.10;;
61471;SDS011;47337;54.068;12.114;2023-05-14T07:31:00;8.63;;;4.03;;
61471;SDS011;47337;54.068;12.114;2023-05-14T07:33:26;5.43;;;3.58;;
61471;SDS011;47337;54.068;12.114;2023-05-14T07:35:54;4.03;;;3.60;;
61471;SDS011;47337;54.068;12.114;2023-05-14T07:38:19;5.70;;;3.50;;
61471;SDS011;47337;54.068;12.114;2023-05-14T07:40:45;4.25;;;3.53;;
61471;SDS011;47337;54.068;12.114;2023-05-14T07:43:15;6.50;;;3.30;;
61471;SDS011;47337;54.068;12.114;2023-05-14T07:45:40;4.95;;;3.72;;
61471;SDS011;47337;54.068;12.114;2023-05-14T07:48:06;4.28;;;2.88;;
61471;SDS011;47337;54.068;12.114;2023-05-14T07:50:34;3.58;;;3.28;;
61471;SDS011;47337;54.068;12.114;2023-05-14T07:52:59;5.93;;;3.08;;
61471;SDS011;47337;54.068;12.114;2023-05-14T07:55:24;4.68;;;3.22;;
61471;SDS011;47337;54.068;12.114;2023-05-14T07:57:50;6.68;;;3.70;;
61471;SDS011;47337;54.068;12.114;2023-05-14T08:00:15;5.00;;;2.88;;
61471;SDS011;47337;54.068;12.114;2023-05-14T08:02:41;5.20;;;3.30;;
61471;SDS011;47337;54.068;12.114;2023-05-14T08:05:07;8.60;;;3.38;;
61471;SDS011;47337;54.068;12.114;2023-05-14T08:07:36;5.57;;;3.20;;
61471;SDS011;47337;54.068;12.114;2023-05-14T08:10:01;3.53;;;3.22;;
61471;SDS011;47337;54.068;12.114;2023-05-14T08:12:27;5.78;;;3.25;;
61471;SDS011;47337;54.068;12.114;2023-05-14T08:14:53;5.07;;;2.90;;
61471;SDS011;47337;54.068;12.114;2023-05-14T08:17:19;4.15;;;3.15;;
61471;SDS011;47337;54.068;12.114;2023-05-14T08:19:44;5.18;;;3.05;;
61471;SDS011;47337;54.068;12.114;2023-05-14T08:22:10;5.85;;;3.13;;
61471;SDS011;47337;54.068;12.114;2023-05-14T08:24:35;3.80;;;2.80;;
61471;SDS011;47337;54.068;12.114;2023-05-14T08:27:00;3.65;;;2.53;;
61471;SDS011;47337;54.068;12.114;2023-05-14T08:29:26;4.45;;;2.42;;
61471;SDS011;47337;54.068;12.114;2023-05-14T08:31:52;3.88;;;2.53;;
61471;SDS011;47337;54.068;12.114;2023-05-14T08:34:17;5.22;;;2.50;;
61471;SDS011;47337;54.068;12.114;2023-05-14T08:36:42;4.15;;;2.47;;
61471;SDS011;47337;54.068;12.114;2023-05-14T08:39:08;2.70;;;2.35;;
61471;SDS011;47337;54.068;12.114;2023-05-14T08:41:35;3.10;;;2.35;;
61471;SDS011;47337;54.068;12.114;2023-05-14T08:46:36;4.72;;;2.70;;
61471;SDS011;47337;54.068;12.114;2023-05-14T08:49:04;2.85;;;2.50;;
61471;SDS011;47337;54.068;12.114;2023-05-14T08:51:38;6.80;;;2.88;;
61471;SDS011;47337;54.068;12.114;2023-05-14T08:54:04;6.88;;;3.10;;
61471;SDS011;47337;54.068;12.114;2023-05-14T08:56:31;4.25;;;2.70;;
61471;SDS011;47337;54.068;12.114;2023-05-14T08:58:57;6.40;;;2.65;;
61471;SDS011;47337;54.068;12.114;2023-05-14T09:01:23;6.38;;;2.92;;
61471;SDS011;47337;54.068;12.114;2023-05-14T09:03:52;4.28;;;2.60;;
61471;SDS011;47337;54.068;12.114;2023-05-14T09:06:21;6.30;;;3.10;;
61471;SDS011;47337;54.068;12.114;2023-05-14T09:08:48;3.22;;;2.50;;
61471;SDS011;47337;54.068;12.114;2023-05-14T09:11:18;4.10;;;2.55;;
61471;SDS011;47337;54.068;12.114;2023-05-14T09:13:44;2.97;;;2.40;;
61471;SDS011;47337;54.068;12.114;2023-05-14T09:16:11;3.13;;;2.83;;
61471;SDS011;47337;54.068;12.114;2023-05-14T09:18:37;6.47;;;2.85;;
61471;SDS011;47337;54.068;12.114;2023-05-14T09:21:03;5.47;;;2.78;;
61471;SDS011;47337;54.068;12.114;2023-05-14T09:23:30;6.15;;;3.33;;
61471;SDS011;47337;54.068;12.114;2023-05-14T09:26:00;7.75;;;3.25;;
61471;SDS011;47337;54.068;12.114;2023-05-14T09:28:30;4.68;;;3.22;;
61471;SDS011;47337;54.068;12.114;2023-05-14T09:30:55;4.70;;;3.13;;
61471;SDS011;47337;54.068;12.114;2023-05-14T09:33:27;3.28;;;2.70;;
61471;SDS011;47337;54.068;12.114;2023-05-14T09:36:00;3.45;;;2.83;;
61471;SDS011;47337;54.068;12.114;2023-05-14T09:38:32;6.53;;;3.00;;
61471;SDS011;47337;54.068;12.114;2023-05-14T09:41:00;3.88;;;3.30;;
61471;SDS011;47337;54.068;12.114;2023-05-14T09:43:28;5.20;;;2.80;;
61471;SDS011;47337;54.068;12.114;2023-05-14T09:45:54;4.40;;;2.90;;
61471;SDS011;47337;54.068;12.114;2023-05-14T09:48:19;5.07;;;2.85;;
61471;SDS011;47337;54.068;12.114;2023-05-14T09:50:46;4.15;;;2.85;;
61471;SDS011;47337;54.068;12.114;2023-05-14T09:53:12;6.25;;;3.10;;
61471;SDS011;47337;54.068;12.114;2023-05-14T09:55:38;6.32;;;3.05;;
61471;SDS011;47337;54.068;12.114;2023-05-14T09:58:06;4.22;;;2.90;;
61471;SDS011;47337;54.068;12.114;2023-05-14T10:00:32;3.78;;;2.90;;
61471;SDS011;47337;54.068;12.114;2023-05-14T10:02:58;3.60;;;2.65;;
61471;SDS011;47337;54.068;12.114;2023-05-14T10:05:29;7.57;;;2.72;;
61471;SDS011;47337;54.068;12.114;2023-05-14T10:08:09;6.75;;;3.03;;
61471;SDS011;47337;54.068;12.114;2023-05-14T10:10:38;4.10;;;3.33;;
61471;SDS011;47337;54.068;12.114;2023-05-14T10:13:12;5.80;;;3.35;;
61471;SDS011;47337;54.068;12.114;2023-05-14T10:15:42;3.97;;;3.15;;
61471;SDS011;47337;54.068;12.114;2023-05-14T10:18:14;5.60;;;3.00;;
61471;SDS011;47337;54.068;12.114;2023-05-14T10:20:41;6.38;;;3.22;;
61471;SDS011;47337;54.068;12.114;2023-05-14T10:23:11;3.42;;;3.10;;
61471;SDS011;47337;54.068;12.114;2023-05-14T10:25:37;4.88;;;3.10;;
61471;SDS011;47337;54.068;12.114;2023-05-14T10:28:05;8.45;;;3.45;;
61471;SDS011;47337;54.068;12.114;2023-05-14T10:30:31;3.78;;;3.10;;
61471;SDS011;47337;54.068;12.114;2023-05-14T10:33:07;4.85;;;3.10;;
61471;SDS011;47337;54.068;12.114;2023-05-14T10:38:25;4.07;;;2.97;;
61471;SDS011;47337;54.068;12.114;2023-05-14T10:40:56;4.20;;;3.05;;
61471;SDS011;47337;54.068;12.114;2023-05-14T10:43:24;3.80;;;2.92;;
61471;SDS011;47337;54.068;12.114;2023-05-14T10:45:52;3.70;;;3.30;;
61471;SDS011;47337;54.068;12.114;2023-05-14T10:48:18;4.30;;;2.97;;
61471;SDS011;47337;54.068;12.114;2023-05-14T10:50:44;3.90;;;3.00;;
61471;SDS011;47337;54.068;12.114;2023-05-14T10:53:12;7.45;;;2.95;;
61471;SDS011;47337;54.068;12.114;2023-05-14T10:55:37;3.03;;;2.60;;
61471;SDS011;47337;54.068;12.114;2023-05-14T10:58:03;5.88;;;3.40;;
61471;SDS011;47337;54.068;12.114;2023-05-14T11:00:34;4.95;;;3.17;;
61471;SDS011;47337;54.068;12.114;2023-05-14T11:03:02;3.95;;;3.17;;
61471;SDS011;47337;54.068;12.114;2023-05-14T11:05:29;5.05;;;3.05;;
61471;SDS011;47337;54.068;12.114;2023-05-14T11:07:56;5.28;;;3.17;;
61471;SDS011;47337;54.068;12.114;2023-05-14T11:10:25;6.53;;;3.10;;
61471;SDS011;47337;54.068;12.114;2023-05-14T11:12:53;4.80;;;2.92;;
61471;SDS011;47337;54.068;12.114;2023-05-14T11:15:21;5.32;;;3.97;;
61471;SDS011;47337;54.068;12.114;2023-05-14T11:17:48;5.45;;;3.15;;
61471;SDS011;47337;54.068;12.114;2023-05-14T11:20:14;6.43;;;3.30;;
61471;SDS011;47337;54.068;12.114;2023-05-14T11:22:42;4.93;;;3.38;;
61471;SDS011;47337;54.068;12.114;2023-05-14T11:25:10;5.53;;;3.22;;
61471;SDS011;47337;54.068;12.114;2023-05-14T11:27:38;4.88;;;3.15;;
61471;SDS011;47337;54.068;12.114;2023-05-14T11:30:14;6.38;;;3.25;;
61471;SDS011;47337;54.068;12.114;2023-05-14T11:32:46;6.97;;;3.17;;
61471;SDS011;47337;54.068;12.114;2023-05-14T11:35:13;5.43;;;3.05;;
61471;SDS011;47337;54.068;12.114;2023-05-14T11:37:41;4.75;;;2.95;;
61471;SDS011;47337;54.068;12.114;2023-05-14T11:40:14;3.20;;;2.90;;
61471;SDS011;47337;54.068;12.114;2023-05-14T11:45:11;6.40;;;3.13;;
61471;SDS011;47337;54.068;12.114;2023-05-14T11:47:37;3.78;;;2.85;;
61471;SDS011;47337;54.068;12.114;2023-05-14T11:50:05;3.55;;;2.97;;
61471;SDS011;47337;54.068;12.114;2023-05-14T11:52:33;3.33;;;3.00;;
61471;SDS011;47337;54.068;12.114;2023-05-14T11:55:04;3.65;;;3.20;;
61471;SDS011;47337;54.068;12.114;2023-05-14T11:57:30;4.63;;;3.40;;
61471;SDS011;47337;54.068;12.114;2023-05-14T11:59:56;7.05;;;4.13;;
61471;SDS011;47337;54.068;12.114;2023-05-14T12:02:22;6.28;;;3.45;;
61471;SDS011;47337;54.068;12.114;2023-05-14T12:04:50;4.63;;;3.45;;
61471;SDS011;47337;54.068;12.114;2023-05-14T12:07:17;4.97;;;3.13;;
61471;SDS011;47337;54.068;12.114;2023-05-14T12:09:44;4.70;;;3.03;;
61471;SDS011;47337;54.068;12.114;2023-05-14T12:12:14;5.15;;;3.50;;
61471;SDS011;47337;54.068;12.114;2023-05-14T12:14:42;5.22;;;3.47;;
61471;SDS011;47337;54.068;12.114;2023-05-14T12:17:11;4.47;;;3.72;;
61471;SDS011;47337;54.068;12.114;2023-05-14T12:19:41;4.13;;;3.42;;
61471;SDS011;47337;54.068;12.114;2023-05-14T12:22:09;6.82;;;3.58;;
61471;SDS011;47337;54.068;12.114;2023-05-14T12:24:35;7.82;;;3.67;;
61471;SDS011;47337;54.068;12.114;2023-05-14T12:27:01;4.65;;;3.50;;
61471;SDS011;47337;54.068;12.114;2023-05-14T12:29:27;3.13;;;2.80;;
61471;SDS011;47337;54.068;12.114;2023-05-14T12:31:59;5.65;;;3.30;;
61471;SDS011;47337;54.068;12.114;2023-05-14T12:34:24;4.78;;;3.35;;
61471;SDS011;47337;54.068;12.114;2023-05-14T12:36:52;4.38;;;2.88;;
61471;SDS011;47337;54.068;12.114;2023-05-14T12:39:17;3.47;;;2.78;;
61471;SDS011;47337;54.068;12.114;2023-05-14T12:41:43;4.43;;;2.75;;
61471;SDS011;47337;54.068;12.114;2023-05-14T12:44:10;5.68;;;2.90;;
61471;SDS011;47337;54.068;12.114;2023-05-14T12:46:36;4.43;;;2.90;;
61471;SDS011;47337;54.068;12.114;2023-05-14T12:49:01;4.35;;;3.20;;
61471;SDS011;47337;54.068;12.114;2023-05-14T12:51:27;6.60;;;2.97;;
61471;SDS011;47337;54.068;12.114;2023-05-14T12:53:57;4.68;;;2.70;;
61471;SDS011;47337;54.068;12.114;2023-05-14T12:56:25;2.88;;;2.67;;
61471;SDS011;47337;54.068;12.114;2023-05-14T12:58:55;4.57;;;3.00;;
61471;SDS011;47337;54.068;12.114;2023-05-14T13:01:20;5.25;;;3.20;;
61471;SDS011;47337;54.068;12.114;2023-05-14T13:03:48;7.70;;;3.35;;
61471;SDS011;47337;54.068;12.114;2023-05-14T13:06:17;6.47;;;3.13;;
61471;SDS011;47337;54.068;12.114;2023-05-14T13:08:43;3.60;;;2.97;;
61471;SDS011;47337;54.068;12.114;2023-05-14T13:11:08;4.00;;;3.03;;
61471;SDS011;47337;54.068;12.114;2023-05-14T13:13:34;4.35;;;3.00;;
61471;SDS011;47337;54.068;12.114;2023-05-14T13:16:02;9.65;;;3.17;;
61471;SDS011;47337;54.068;12.114;2023-05-14T13:18:28;5.28;;;3.40;;
61471;SDS011;47337;54.068;12.114;2023-05-14T13:20:56;6.18;;;3.08;;
61471;SDS011;47337;54.068;12.114;2023-05-14T13:23:23;3.00;;;2.70;;
61471;SDS011;47337;54.068;12.114;2023-05-14T13:25:51;5.15;;;3.67;;
61471;SDS011;47337;54.068;12.114;2023-05-14T13:28:16;4.57;;;3.38;;
61471;SDS011;47337;54.068;12.114;2023-05-14T13:33:34;4.53;;;2.60;;
61471;SDS011;47337;54.068;12.114;2023-05-14T13:36:04;3.15;;;2.80;;
61471;SDS011;47337;54.068;12.114;2023-05-14T13:38:29;5.25;;;2.50;;
61471;SDS011;47337;54.068;12.114;2023-05-14T13:40:55;4.90;;;2.80;;
61471;SDS011;47337;54.068;12.114;2023-05-14T13:43:25;4.78;;;2.90;;
61471;SDS011;47337;54.068;12.114;2023-05-14T13:45:51;5.15;;;2.85;;
61471;SDS011;47337;54.068;12.114;2023-05-14T13:48:16;3.38;;;3.00;;
61471;SDS011;47337;54.068;12.114;2023-05-14T13:50:42;3.22;;;2.80;;
61471;SDS011;47337;54.068;12.114;2023-05-14T13:53:07;5.20;;;3.00;;
61471;SDS011;47337;54.068;12.114;2023-05-14T13:55:32;3.13;;;2.78;;
61471;SDS011;47337;54.068;12.114;2023-05-14T13:58:00;4.97;;;2.78;;
61471;SDS011;47337;54.068;12.114;2023-05-14T14:00:27;3.22;;;2.70;;
61471;SDS011;47337;54.068;12.114;2023-05-14T14:02:53;4.20;;;2.83;;
61471;SDS011;47337;54.068;12.114;2023-05-14T14:05:21;3.30;;;3.00;;
61471;SDS011;47337;54.068;12.114;2023-05-14T14:07:47;5.68;;;2.95;;
61471;SDS011;47337;54.068;12.114;2023-05-14T14:10:13;4.80;;;2.92;;
61471;SDS011;47337;54.068;12.114;2023-05-14T14:12:38;3.35;;;2.92;;
61471;SDS011;47337;54.068;12.114;2023-05-14T14:15:09;4.82;;;2.83;;
61471;SDS011;47337;54.068;12.114;2023-05-14T14:17:36;3.35;;;3.00;;
61471;SDS011;47337;54.068;12.114;2023-05-14T14:20:03;3.35;;;3.05;;
61471;SDS011;47337;54.068;12.114;2023-05-14T14:22:32;6.47;;;3.55;;
61471;SDS011;47337;54.068;12.114;2023-05-14T14:24:57;6.85;;;3.60;;
61471;SDS011;47337;54.068;12.114;2023-05-14T14:27:22;4.03;;;3.30;;
61471;SDS011;47337;54.068;12.114;2023-05-14T14:29:48;4.82;;;4.07;;
61471;SDS011;47337;54.068;12.114;2023-05-14T14:32:15;5.72;;;3.92;;
61471;SDS011;47337;54.068;12.114;2023-05-14T14:34:41;5.70;;;3.78;;
61471;SDS011;47337;54.068;12.114;2023-05-14T14:37:06;5.55;;;4.07;;
61471;SDS011;47337;54.068;12.114;2023-05-14T14:39:34;9.32;;;4.43;;
61471;SDS011;47337;54.068;12.114;2023-05-14T14:42:02;4.40;;;3.95;;
61471;SDS011;47337;54.068;12.114;2023-05-14T14:44:28;5.47;;;3.90;;
61471;SDS011;47337;54.068;12.114;2023-05-14T14:46:53;7.50;;;3.85;;
61471;SDS011;47337;54.068;12.114;2023-05-14T14:49:19;4.70;;;4.00;;